Terminal Aerodrome Forecast
Issued by NWS

Home | Current Version | Previous Version | Text Only | Print | Product List | Glossary On
Versions: 1 2 3 4 5 6 7 8 9 10 11 12 13 14 15 16 17 18 19
129
FTUS43 KIWX 230540 AAA
TAFSBN
TAF AMD
KSBN 230540Z 2306/2406 24009KT P6SM BKN060
     FM231100 24009KT P6SM VCSH OVC020
     FM231400 28014G22KT 4SM -SHRASN OVC010
     FM231800 30014G22KT P6SM VCSH OVC015
     FM240300 31010KT P6SM BKN025=

USA.gov is the U.S. government's official web portal to all federal, state and local government web resources and services.